Time;durP1;ratioP1;P1;durP2;ratioP2;P2;SDS_P1;SDS_P2;PMS_P1;PMS_P2;Temp;Humidity;BMP_temperature;BMP_pressure;BME280_temperature;BME280_humidity;BME280_pressure;Samples;Min_cycle;Max_cycle;Signal;HPM_P1;HPM_P2
2023/10/16 00:01:31;;;;;;;5.95;3.10;;;;;;;7.61;100.00;102333.59;5233976;28;20033;-71
2023/10/16 00:04:05;;;;;;;5.22;3.42;;;;;;;7.63;100.00;102337.84;5236282;28;20044;-71
2023/10/16 00:06:36;;;;;;;5.18;3.88;;;;;;;7.70;100.00;102333.16;5233171;28;20036;-71
2023/10/16 00:09:14;;;;;;;5.50;3.55;;;;;;;7.67;100.00;102325.50;5235736;28;20493;-71
2023/10/16 00:11:47;;;;;;;7.50;3.72;;;;;;;7.68;100.00;102325.41;5235617;28;20037;-71
2023/10/16 00:14:25;;;;;;;5.97;3.70;;;;;;;7.74;100.00;102325.13;5236343;28;20029;-71
2023/10/16 00:16:57;;;;;;;8.93;3.53;;;;;;;7.72;100.00;102316.50;5234029;28;20112;-71
2023/10/16 00:19:33;;;;;;;8.25;4.13;;;;;;;7.79;100.00;102322.28;5235264;28;20041;-71
2023/10/16 00:22:18;;;;;;;6.25;3.95;;;;;;;7.82;100.00;102329.94;5233287;28;20033;-71
2023/10/16 00:24:50;;;;;;;6.13;4.30;;;;;;;7.83;100.00;102329.03;5234840;28;20030;-71
2023/10/16 00:27:22;;;;;;;7.30;3.67;;;;;;;7.87;100.00;102320.13;5234120;28;20502;-71
2023/10/16 00:29:55;;;;;;;6.78;4.40;;;;;;;7.92;100.00;102325.13;5237766;28;20045;-71
2023/10/16 00:32:27;;;;;;;6.05;3.90;;;;;;;7.94;100.00;102318.06;5239733;28;20026;-71
2023/10/16 00:35:00;;;;;;;7.03;3.72;;;;;;;7.96;100.00;102327.50;5238900;28;20048;-71
2023/10/16 00:37:32;;;;;;;7.47;4.13;;;;;;;7.99;100.00;102324.75;5238231;28;20479;-71
2023/10/16 00:40:10;;;;;;;9.25;5.05;;;;;;;7.98;100.00;102327.41;5238711;28;20057;-71
2023/10/16 00:42:43;;;;;;;7.07;4.50;;;;;;;8.02;100.00;102327.19;5238813;28;20033;-72
2023/10/16 00:45:15;;;;;;;7.63;4.40;;;;;;;8.02;100.00;102327.19;5237942;28;20053;-71
2023/10/16 00:47:47;;;;;;;6.47;3.75;;;;;;;8.02;100.00;102334.16;5240397;28;20100;-71
2023/10/16 00:50:19;;;;;;;5.47;3.90;;;;;;;7.98;100.00;102325.66;5237432;28;20029;-71
2023/10/16 00:52:51;;;;;;;11.70;3.50;;;;;;;7.96;100.00;102322.28;5237386;28;20029;-71
2023/10/16 00:55:23;;;;;;;7.20;4.18;;;;;;;7.95;100.00;102320.56;5238469;28;20479;-71
2023/10/16 00:57:56;;;;;;;5.93;3.78;;;;;;;7.94;100.00;102318.06;5238126;28;20064;-71
2023/10/16 01:00:27;;;;;;;6.10;3.60;;;;;;;7.95;100.00;102315.34;5237632;28;20849;-71
2023/10/16 01:03:04;;;;;;;7.93;4.07;;;;;;;7.92;100.00;102315.53;5238841;28;20033;-71
2023/10/16 01:05:41;;;;;;;7.30;4.10;;;;;;;7.90;100.00;102314.75;5238121;28;20391;-71
2023/10/16 01:08:17;;;;;;;6.55;4.40;;;;;;;7.91;100.00;102318.22;5230665;28;20056;-71
2023/10/16 01:10:49;;;;;;;5.45;3.83;;;;;;;7.88;100.00;102314.00;5236830;28;20025;-71
2023/10/16 01:13:21;;;;;;;6.38;3.80;;;;;;;7.88;100.00;102318.34;5236969;28;20021;-71
2023/10/16 01:15:53;;;;;;;8.82;4.32;;;;;;;7.85;100.00;102319.38;5237803;28;20035;-71
2023/10/16 01:18:26;;;;;;;4.38;3.47;;;;;;;7.79;100.00;102312.69;5235385;28;20118;-71
2023/10/16 01:21:01;;;;;;;5.88;4.07;;;;;;;7.83;100.00;102305.53;5237438;28;20040;-71
2023/10/16 01:23:34;;;;;;;6.72;4.05;;;;;;;7.85;100.00;102305.47;5238051;28;20033;-71
2023/10/16 01:26:08;;;;;;;7.20;4.10;;;;;;;7.85;100.00;102302.88;5235604;28;20018;-71
2023/10/16 01:28:40;;;;;;;6.57;3.65;;;;;;;7.88;100.00;102303.56;5236813;28;20037;-71
2023/10/16 01:31:13;;;;;;;7.43;4.55;;;;;;;7.92;100.00;102301.66;5241923;28;20040;-73
2023/10/16 01:33:46;;;;;;;7.22;4.32;;;;;;;7.91;100.00;102297.31;5246002;28;20386;-71
2023/10/16 01:36:18;;;;;;;7.80;4.28;;;;;;;7.87;100.00;102299.25;5247461;28;20029;-71
2023/10/16 01:38:50;;;;;;;9.93;4.50;;;;;;;7.88;100.00;102300.97;5245990;28;20397;-71
2023/10/16 01:41:22;;;;;;;7.53;4.68;;;;;;;7.87;100.00;102299.25;5247716;28;20029;-71
2023/10/16 01:43:55;;;;;;;8.65;4.53;;;;;;;7.89;100.00;102293.97;5247217;28;20473;-71
2023/10/16 01:46:28;;;;;;;7.63;5.00;;;;;;;7.95;100.00;102288.41;5248297;28;20486;-71
2023/10/16 01:49:01;;;;;;;8.82;4.93;;;;;;;7.96;100.00;102290.97;5244030;28;20021;-72
2023/10/16 01:51:35;;;;;;;8.25;4.90;;;;;;;7.93;100.00;102293.72;5243828;28;20037;-72
2023/10/16 01:54:14;;;;;;;5.55;4.35;;;;;;;7.95;100.00;102293.63;5246730;28;20025;-72
2023/10/16 01:56:47;;;;;;;7.88;4.80;;;;;;;7.99;100.00;102293.44;5246610;28;20044;-72
2023/10/16 01:59:21;;;;;;;6.45;4.63;;;;;;;8.00;100.00;102296.88;5243054;28;20033;-72
2023/10/16 02:01:52;;;;;;;6.90;4.57;;;;;;;7.95;100.00;102294.47;5241993;28;20514;-74
2023/10/16 02:04:24;;;;;;;8.02;5.10;;;;;;;7.99;100.00;102285.59;5243353;28;20025;-72
2023/10/16 02:06:56;;;;;;;5.97;4.65;;;;;;;7.99;100.00;102290.81;5245522;28;20018;-73
2023/10/16 02:09:31;;;;;;;6.65;4.60;;;;;;;7.95;100.00;102291.03;5242453;28;20037;-73
2023/10/16 02:12:05;;;;;;;9.10;4.53;;;;;;;7.89;100.00;102284.38;5244598;28;20032;-72
2023/10/16 02:14:40;;;;;;;7.80;4.60;;;;;;;7.87;100.00;102286.19;5241969;28;20037;-72
2023/10/16 02:17:19;;;;;;;13.90;5.45;;;;;;;7.85;100.00;102280.22;5242725;28;20039;-72
2023/10/16 02:19:51;;;;;;;6.90;4.63;;;;;;;7.85;100.00;102277.63;5242423;28;20037;-73
2023/10/16 02:22:23;;;;;;;6.82;4.50;;;;;;;7.85;100.00;102275.00;5246284;28;20033;-73
2023/10/16 02:24:55;;;;;;;6.45;5.05;;;;;;;7.82;100.00;102275.16;5244506;28;20116;-73
2023/10/16 02:27:26;;;;;;;9.52;4.80;;;;;;;7.65;100.00;102246.44;5246167;28;20024;-72
2023/10/16 02:30:14;;;;;;;8.18;5.03;;;;;;;7.77;100.00;102269.34;5246243;28;20029;-72
2023/10/16 02:32:46;;;;;;;5.32;4.50;;;;;;;7.76;100.00;102283.28;5247135;28;20471;-73
2023/10/16 02:35:19;;;;;;;9.82;4.88;;;;;;;7.73;100.00;102270.41;5241193;28;20531;-72
2023/10/16 02:37:53;;;;;;;;;;;;;;;8.49;100.00;102266.50;5247089;28;20040;-72
2023/10/16 02:40:25;;;;;;;7.10;5.18;;;;;;;7.79;100.00;102272.69;5245809;28;20294;-72
2023/10/16 02:43:00;;;;;;;6.97;5.10;;;;;;;7.70;100.00;102268.78;5246014;28;20056;-74
2023/10/16 02:45:33;;;;;;;6.13;4.07;;;;;;;7.66;100.00;102271.63;5241224;28;20036;-72
2023/10/16 02:48:09;;;;;;;9.85;5.38;;;;;;;7.62;100.00;102252.69;5241274;28;20043;-73
2023/10/16 02:50:43;;;;;;;6.88;4.80;;;;;;;7.70;100.00;102266.19;5245561;28;20491;-74
2023/10/16 02:53:16;;;;;;;7.47;4.70;;;;;;;7.65;100.00;102265.59;5245258;28;20477;-72
2023/10/16 02:55:50;;;;;;;6.80;4.95;;;;;;;7.60;100.00;102267.56;5246880;28;20041;-74
2023/10/16 02:58:24;;;;;;;;;;;;;;;8.41;100.00;102267.78;5244088;28;20033;-73
2023/10/16 03:00:58;;;;;;;7.70;5.13;;;;;;;7.70;100.00;102273.19;5241577;28;19917;-72
2023/10/16 03:03:30;;;;;;;5.85;4.90;;;;;;;7.63;100.00;102267.41;5245883;28;20321;-72
2023/10/16 03:06:03;;;;;;;9.23;5.15;;;;;;;7.65;100.00;102269.94;5242339;28;20493;-72
2023/10/16 03:08:36;;;;;;;9.43;5.15;;;;;;;7.59;100.00;102271.09;5251481;28;20051;-72
2023/10/16 03:11:13;;;;;;;8.13;4.75;;;;;;;7.65;100.00;102269.94;5247028;28;20025;-72
2023/10/16 03:13:47;;;;;;;7.90;4.90;;;;;;;7.55;100.00;102267.78;5244631;28;20037;-74
2023/10/16 03:16:26;;;;;;;8.57;5.32;;;;;;;7.53;100.00;102266.16;5246293;28;20021;-72
2023/10/16 03:19:09;;;;;;;7.57;5.15;;;;;;;7.54;100.00;102260.91;5242988;28;20029;-72
2023/10/16 03:21:41;;;;;;;7.65;5.20;;;;;;;7.48;100.00;102261.19;5246370;28;20025;-72
2023/10/16 03:24:13;;;;;;;8.77;5.30;;;;;;;7.49;100.00;102254.19;5242601;28;20044;-73
2023/10/16 03:26:47;;;;;;;7.03;5.32;;;;;;;7.41;100.00;102251.97;5245349;28;20618;-72
2023/10/16 03:29:19;;;;;;;7.80;4.97;;;;;;;7.36;100.00;102267.00;5243631;28;20038;-72
2023/10/16 03:31:51;;;;;;;7.28;5.57;;;;;;;7.35;100.00;102256.63;5242513;28;20139;-72
2023/10/16 03:34:25;;;;;;;5.82;5.00;;;;;;;7.32;100.00;102268.06;5240395;28;20040;-72
2023/10/16 03:37:05;;;;;;;5.82;4.93;;;;;;;7.29;100.00;102263.84;5242279;28;20123;-72
2023/10/16 03:39:38;;;;;;;9.88;5.30;;;;;;;7.25;100.00;102262.31;5242432;28;20032;-72
2023/10/16 03:42:10;;;;;;;5.65;4.45;;;;;;;7.28;100.00;102261.31;5241841;28;20022;-73
2023/10/16 03:44:42;;;;;;;6.97;4.78;;;;;;;7.23;100.00;102264.13;5238198;28;20056;-72
2023/10/16 03:47:14;;;;;;;6.65;4.88;;;;;;;7.21;100.00;102259.91;5244904;28;20037;-72
2023/10/16 03:49:46;;;;;;;5.70;5.00;;;;;;;7.14;100.00;102256.75;5246710;28;20029;-72
2023/10/16 03:52:18;;;;;;;7.85;5.15;;;;;;;7.15;100.00;102260.19;5247009;28;20434;-72
2023/10/16 03:54:50;;;;;;;6.85;5.20;;;;;;;7.09;100.00;102255.31;5246740;28;20111;-72
2023/10/16 03:57:23;;;;;;;7.38;4.78;;;;;;;7.09;100.00;102257.91;5242836;28;20112;-72
2023/10/16 03:59:54;;;;;;;9.50;5.05;;;;;;;7.08;100.00;102254.44;5245646;28;20044;-72
2023/10/16 04:02:31;;;;;;;5.55;4.95;;;;;;;7.04;100.00;102261.53;5242214;28;20169;-72
2023/10/16 04:05:11;;;;;;;6.85;5.35;;;;;;;7.01;100.00;102253.91;5246578;28;20362;-72
2023/10/16 04:07:43;;;;;;;6.22;4.55;;;;;;;7.04;100.00;102252.88;5249037;28;20034;-72
2023/10/16 04:10:27;;;;;;;7.30;5.00;;;;;;;7.05;100.00;102250.22;5249410;28;20036;-72
2023/10/16 04:12:59;;;;;;;8.13;5.85;;;;;;;7.00;100.00;102253.97;5244207;28;20044;-72
2023/10/16 04:31:45;;;;;;;6.35;5.22;;;;;;;6.80;100.00;102232.28;5249147;28;20056;-73
2023/10/16 04:50:39;;;;;;;6.13;4.72;;;;;;;6.78;100.00;102225.44;5246422;28;20052;-73
2023/10/16 04:53:11;;;;;;;7.45;5.45;;;;;;;6.79;100.00;102217.59;5245030;28;20040;-72
2023/10/16 05:03:35;;;;;;;7.63;5.60;;;;;;;6.91;100.00;102223.13;5243369;28;20045;-72
2023/10/16 05:14:28;;;;;;;7.93;6.35;;;;;;;6.88;100.00;102215.47;5247029;28;20040;-72
2023/10/16 05:19:54;;;;;;;6.72;5.28;;;;;;;6.88;100.00;102210.25;5247962;28;20128;-72
2023/10/16 06:16:31;;;;;;;7.80;5.90;;;;;;;7.22;100.00;102212.91;5225923;28;20042;-72
2023/10/16 06:19:07;;;;;;;8.25;5.78;;;;;;;7.14;100.00;102212.44;5221962;28;20026;-72
2023/10/16 06:21:39;;;;;;;6.93;6.07;;;;;;;7.17;100.00;102214.06;5225543;28;20044;-73
2023/10/16 06:24:35;;;;;;;6.82;6.13;;;;;;;7.16;100.00;102199.34;5219158;28;20124;-72
2023/10/16 06:27:10;;;;;;;7.88;5.88;;;;;;;7.18;100.00;102197.50;5223402;28;20028;-72
2023/10/16 06:29:51;;;;;;;7.80;6.15;;;;;;;7.16;100.00;102209.75;5223594;28;20040;-74
2023/10/16 06:32:35;;;;;;;6.82;5.50;;;;;;;7.11;100.00;102201.34;5223021;28;20052;-73
2023/10/16 06:35:08;;;;;;;7.50;5.72;;;;;;;7.20;100.00;102221.75;5219876;28;20038;-73
2023/10/16 06:37:49;;;;;;;;;;;;;;;7.88;100.00;102213.97;5223612;28;20049;-71
2023/10/16 06:40:26;;;;;;;7.78;5.68;;;;;;;7.23;100.00;102212.00;5224572;28;19928;-73
2023/10/16 06:43:10;;;;;;;8.35;5.75;;;;;;;7.20;100.00;102203.50;5225647;28;20108;-72
2023/10/16 06:45:49;;;;;;;;;;;;;;;7.90;100.00;102209.53;5242642;28;20397;-72
2023/10/16 06:48:21;;;;;;;8.50;5.60;;;;;;;7.23;100.00;102203.34;5242428;28;19916;-72
2023/10/16 06:50:53;;;;;;;8.82;6.10;;;;;;;7.27;100.00;102217.91;5244497;28;20471;-72
2023/10/16 06:53:25;;;;;;;8.13;6.70;;;;;;;7.34;100.00;102216.69;5241828;28;20030;-74
2023/10/16 06:55:59;;;;;;;9.32;6.13;;;;;;;7.34;100.00;102211.47;5241195;28;20344;-73
2023/10/16 06:58:34;;;;;;;7.55;6.40;;;;;;;7.34;100.00;102211.47;5242644;28;20045;-72
2023/10/16 07:01:06;;;;;;;10.35;6.00;;;;;;;7.38;100.00;102220.81;5239397;28;20395;-72
2023/10/16 07:03:39;;;;;;;9.80;6.65;;;;;;;7.43;100.00;102218.84;5244329;28;20033;-75
2023/10/16 07:06:14;;;;;;;6.97;6.17;;;;;;;7.41;100.00;102220.69;5235999;28;20021;-72
2023/10/16 07:08:46;;;;;;;9.50;6.10;;;;;;;7.42;100.00;102230.19;5238017;28;20318;-75
2023/10/16 07:11:19;;;;;;;8.30;6.20;;;;;;;7.40;100.00;102216.41;5246244;28;20459;-72
2023/10/16 07:13:51;;;;;;;8.25;6.50;;;;;;;7.43;100.00;102223.22;5244789;28;20033;-74
2023/10/16 07:16:22;;;;;;;8.23;6.50;;;;;;;7.45;100.00;102227.44;5244052;28;20055;-73
2023/10/16 07:18:57;;;;;;;10.43;6.82;;;;;;;7.47;100.00;102219.56;5244822;28;20067;-75
2023/10/16 07:21:29;;;;;;;9.10;6.05;;;;;;;7.44;100.00;102220.53;5240251;28;20047;-72
2023/10/16 07:24:03;;;;;;;8.48;6.60;;;;;;;7.43;100.00;102224.06;5240769;28;20174;-73
2023/10/16 07:26:35;;;;;;;7.20;6.22;;;;;;;7.47;100.00;102224.75;5246179;28;20025;-73
2023/10/16 07:29:06;;;;;;;8.95;6.63;;;;;;;7.51;100.00;102227.13;5237516;28;20036;-72
2023/10/16 07:31:38;;;;;;;8.77;6.93;;;;;;;7.52;100.00;102228.81;5224684;28;20276;-73
2023/10/16 07:34:11;;;;;;;7.43;6.45;;;;;;;7.51;100.00;102227.13;5231817;28;20111;-73
2023/10/16 07:36:45;;;;;;;8.80;6.47;;;;;;;7.63;100.00;102230.06;5231331;28;20021;-73
2023/10/16 07:39:17;;;;;;;10.38;6.90;;;;;;;7.67;100.00;102227.22;5240763;28;20296;-75
2023/10/16 07:41:49;;;;;;;7.85;7.05;;;;;;;7.72;100.00;102224.34;5242338;28;20039;-72
2023/10/16 07:44:21;;;;;;;7.90;6.63;;;;;;;7.74;100.00;102223.38;5244879;28;20046;-75
2023/10/16 07:46:53;;;;;;;7.30;6.57;;;;;;;7.77;100.00;102220.63;5241399;28;20390;-72
2023/10/16 07:49:25;;;;;;;8.00;6.90;;;;;;;7.86;100.00;102215.84;5239807;28;20474;-72
2023/10/16 07:51:59;;;;;;;8.10;7.00;;;;;;;7.95;100.00;102213.59;5242028;28;20029;-72
2023/10/16 07:54:36;;;;;;;9.00;7.10;;;;;;;8.02;100.00;102217.56;5237460;28;20474;-74
2023/10/16 07:57:08;;;;;;;8.25;7.03;;;;;;;8.08;100.00;102207.75;5236089;28;20510;-72
2023/10/16 07:59:43;;;;;;;8.50;6.70;;;;;;;8.13;100.00;102214.41;5240806;28;20025;-72
2023/10/16 08:02:17;;;;;;;9.60;7.32;;;;;;;8.22;100.00;102210.44;5240026;28;20101;-72
2023/10/16 08:04:52;;;;;;;8.65;6.95;;;;;;;8.25;100.00;102215.50;5240711;28;20358;-72
2023/10/16 08:07:46;;;;;;;11.30;7.63;;;;;;;8.29;100.00;102217.88;5239417;28;20622;-72
2023/10/16 08:10:41;;;;;;;10.15;7.75;;;;;;;8.37;100.00;102216.63;5237927;28;20502;-72
2023/10/16 08:13:13;;;;;;;10.98;7.95;;;;;;;8.45;100.00;102217.94;5240120;28;20025;-72
2023/10/16 08:15:45;;;;;;;9.57;7.78;;;;;;;8.50;100.00;102208.09;5239663;28;20041;-72
2023/10/16 08:18:18;;;;;;;10.90;7.75;;;;;;;8.57;100.00;102207.78;5240768;28;20030;-72
2023/10/16 08:20:59;;;;;;;11.10;7.57;;;;;;;8.66;100.00;102213.31;5242377;28;20036;-72
2023/10/16 08:23:34;;;;;;;8.45;7.40;;;;;;;8.68;100.00;102210.63;5237137;28;20037;-73
2023/10/16 08:26:19;;;;;;;10.13;7.13;;;;;;;8.75;100.00;102217.19;5240425;28;20372;-72
2023/10/16 08:28:51;;;;;;;9.57;7.28;;;;;;;8.84;100.00;102211.47;5237805;28;20040;-72
2023/10/16 08:31:23;;;;;;;10.07;7.85;;;;;;;8.90;100.00;102213.75;5241904;28;20029;-72
2023/10/16 08:33:55;;;;;;;11.55;7.13;;;;;;;8.96;100.00;102210.78;5248637;28;20029;-72
2023/10/16 08:36:27;;;;;;;9.68;7.40;;;;;;;9.01;100.00;102206.13;5249459;28;20035;-72
2023/10/16 08:39:08;;;;;;;7.93;6.93;;;;;;;9.06;100.00;102205.03;5247368;28;20076;-72
2023/10/16 08:41:42;;;;;;;8.32;6.75;;;;;;;9.13;100.00;102204.59;5243257;28;20501;-72
2023/10/16 08:44:15;;;;;;;10.55;6.93;;;;;;;9.19;100.00;102206.03;5244533;28;20045;-72
2023/10/16 08:49:30;;;;;;;10.02;7.10;;;;;;;9.32;100.00;102206.16;5245889;28;20532;-73
2023/10/16 08:52:10;;;;;;;9.50;7.28;;;;;;;9.37;100.00;102204.97;5245288;28;20021;-72
2023/10/16 08:57:20;;;;;;;7.68;6.13;;;;;;;9.51;100.00;102212.03;5231810;28;20041;-72
2023/10/16 08:59:52;;;;;;;7.68;5.60;;;;;;;9.57;100.00;102216.03;5228578;28;20510;-73
2023/10/16 09:02:26;;;;;;;9.68;6.25;;;;;;;9.68;100.00;102213.63;5233337;28;20048;-72
2023/10/16 09:04:59;;;;;;;8.63;6.13;;;;;;;9.75;100.00;102215.78;5234716;28;20352;-72
2023/10/16 09:07:34;;;;;;;11.77;6.07;;;;;;;9.87;100.00;102218.63;5235521;28;20033;-72
2023/10/16 09:10:09;;;;;;;15.35;7.00;;;;;;;9.94;100.00;102218.16;5234023;28;20029;-73
2023/10/16 09:12:52;;;;;;;6.65;5.30;;;;;;;10.06;100.00;102219.19;5234909;28;20040;-73
2023/10/16 09:15:24;;;;;;;10.20;5.82;;;;;;;10.17;100.00;102216.75;5232891;28;20030;-72
2023/10/16 09:17:56;;;;;;;8.35;5.50;;;;;;;10.28;100.00;102210.91;5234139;28;20036;-72
2023/10/16 09:20:40;;;;;;;6.22;5.38;;;;;;;10.36;100.00;102216.50;5237275;28;20036;-73
2023/10/16 09:23:13;;;;;;;11.23;5.78;;;;;;;10.47;100.00;102218.47;5236094;28;20630;-73
2023/10/16 09:25:47;;;;;;;8.82;6.43;;;;;;;10.61;100.00;102217.59;5237497;28;20506;-73
2023/10/16 09:28:19;;;;;;;10.77;4.43;;;;;;;10.66;100.00;102213.75;5236077;28;20033;-73
2023/10/16 09:30:52;;;;;;;6.68;4.25;;;;;;;10.79;100.00;102213.78;5237058;28;20032;-73
2023/10/16 09:33:24;;;;;;;9.70;4.00;;;;;;;10.96;100.00;102220.59;5230052;28;20033;-72
2023/10/16 09:36:00;;;;;;;6.20;3.60;;;;;;;11.06;100.00;102216.44;5235900;28;20048;-73
2023/10/16 09:38:34;;;;;;;8.52;4.50;;;;;;;11.26;100.00;102212.50;5225881;28;20033;-73
2023/10/16 09:42:11;;;;;;;9.50;4.53;;;;;;;11.44;100.00;102215.72;5238053;28;20041;-73
2023/10/16 09:44:22;;;;;;;5.03;3.20;;;;;;;11.63;100.00;102220.53;5213073;28;20049;-73
2023/10/16 09:46:54;;;;;;;7.28;3.67;;;;;;;11.73;100.00;102218.16;5237738;28;20032;-73
2023/10/16 09:49:27;;;;;;;6.47;3.70;;;;;;;11.82;100.00;102202.63;5233778;28;20040;-73
2023/10/16 09:52:04;;;;;;;6.95;3.15;;;;;;;12.05;100.00;102216.00;5225529;28;20049;-72
2023/10/16 09:54:36;;;;;;;5.15;2.60;;;;;;;11.99;100.00;102211.16;5231159;28;20040;-73
2023/10/16 09:57:08;;;;;;;6.88;3.13;;;;;;;12.14;100.00;102205.66;5235527;28;20025;-73
2023/10/16 09:59:40;;;;;;;7.15;3.00;;;;;;;12.30;100.00;102207.22;5234349;28;20025;-73
2023/10/16 10:02:17;;;;;;;7.43;3.25;;;;;;;12.45;100.00;102210.56;5236101;28;20033;-73
2023/10/16 10:04:59;;;;;;;5.47;3.20;;;;;;;12.59;100.00;102205.16;5235867;28;20029;-73
2023/10/16 10:07:38;;;;;;;5.05;3.03;;;;;;;12.57;100.00;102207.88;5233764;28;20037;-73
2023/10/16 10:13:08;;;;;;;6.45;3.20;;;;;;;12.70;100.00;102209.66;5239270;28;20037;-73
2023/10/16 10:15:45;;;;;;;5.40;2.83;;;;;;;12.86;100.00;102205.78;5236029;28;20029;-73
2023/10/16 10:18:42;;;;;;;6.90;3.38;;;;;;;12.85;100.00;102211.19;5244029;28;20036;-73
2023/10/16 10:21:18;;;;;;;5.43;2.72;;;;;;;13.00;100.00;102207.44;5240874;28;20029;-73
2023/10/16 10:24:00;;;;;;;6.57;2.88;;;;;;;13.10;100.00;102200.50;5246524;28;20092;-73
2023/10/16 10:26:32;;;;;;;5.28;2.90;;;;;;;13.24;100.00;102207.44;5240915;28;20030;-73
2023/10/16 10:29:09;;;;;;;6.60;3.40;;;;;;;13.31;100.00;102203.38;5241192;28;20030;-73
2023/10/16 10:31:41;;;;;;;5.30;2.50;;;;;;;13.40;100.00;102191.31;5239317;28;20112;-73
2023/10/16 10:34:22;;;;;;;5.90;2.60;;;;;;;13.62;100.00;102198.44;5244130;28;20513;-74
2023/10/16 10:36:54;;;;;;;4.47;2.00;;;;;;;13.52;100.00;102195.66;5242257;28;20087;-74
2023/10/16 10:42:08;;;;;;;4.25;2.10;;;;;;;13.58;100.00;102194.38;5237910;28;20064;-73
2023/10/16 10:44:53;;;;;;;3.35;1.33;;;;;;;13.76;100.00;102186.88;5236505;28;20043;-73
2023/10/16 10:47:32;;;;;;;3.13;1.10;;;;;;;13.67;100.00;102193.66;5232185;28;20041;-73
2023/10/16 10:50:13;;;;;;;3.17;1.20;;;;;;;13.73;100.00;102187.94;5230019;28;20030;-73
2023/10/16 10:52:46;;;;;;;4.30;1.08;;;;;;;13.55;100.00;102194.59;5233933;28;20471;-74
2023/10/16 10:55:18;;;;;;;5.32;1.00;;;;;;;13.54;100.00;102192.91;5235792;28;20032;-73
2023/10/16 10:57:58;;;;;;;2.47;1.00;;;;;;;13.73;100.00;102184.47;5235942;28;20440;-73
2023/10/16 11:03:09;;;;;;;12.43;1.25;;;;;;;13.85;100.00;102186.13;5236902;28;20459;-73
2023/10/16 11:05:42;;;;;;;3.28;1.00;;;;;;;13.78;100.00;102190.19;5235966;28;20025;-73
2023/10/16 11:10:47;;;;;;;3.72;1.20;;;;;;;13.92;100.00;102175.97;5239226;28;20048;-73
2023/10/16 11:13:21;;;;;;;4.57;1.63;;;;;;;14.17;100.00;102181.00;5231610;28;20101;-73
2023/10/16 11:15:55;;;;;;;4.10;1.58;;;;;;;14.21;100.00;102179.81;5235291;28;20721;-73
2023/10/16 11:18:26;;;;;;;3.47;1.52;;;;;;;14.22;100.00;102173.56;5238056;28;20026;-73
2023/10/16 11:21:03;;;;;;;3.35;1.88;;;;;;;14.26;100.00;102167.09;5242613;28;20037;-73
2023/10/16 11:23:40;;;;;;;5.45;2.15;;;;;;;14.28;100.00;102164.31;5226197;28;20474;-73
2023/10/16 11:26:13;;;;;;;3.40;1.50;;;;;;;14.52;100.00;102164.22;5240396;28;20040;-74
2023/10/16 11:28:48;;;;;;;3.72;1.67;;;;;;;14.66;100.00;102168.34;5240321;28;20040;-74
2023/10/16 11:31:21;;;;;;;4.63;1.77;;;;;;;14.66;100.00;102152.53;5236786;28;20037;-73
2023/10/16 11:34:07;;;;;;;3.58;1.67;;;;;;;14.82;100.00;102163.53;5234164;28;20032;-73
2023/10/16 11:36:42;;;;;;;2.35;1.55;;;;;;;14.89;100.00;102153.28;5231219;28;20048;-73
2023/10/16 11:39:19;;;;;;;3.08;1.63;;;;;;;14.94;100.00;102154.59;5235540;28;20517;-74
2023/10/16 11:41:51;;;;;;;3.20;1.10;;;;;;;14.81;100.00;102143.34;5243114;28;20032;-73
2023/10/16 11:44:27;;;;;;;2.58;1.02;;;;;;;14.99;93.53;102147.13;5242253;28;20088;-73
2023/10/16 11:47:06;;;;;;;1.88;1.02;;;;;;;14.99;97.38;102147.13;5240384;28;20400;-74
2023/10/16 11:49:37;;;;;;;4.45;1.20;;;;;;;15.02;100.00;102143.41;5240110;28;20033;-73
2023/10/16 11:52:19;;;;;;;2.50;1.20;;;;;;;14.96;95.38;102141.25;5236915;28;20040;-73
2023/10/16 11:54:58;;;;;;;3.63;1.50;;;;;;;15.15;100.00;102140.56;5229123;28;20499;-74
2023/10/16 11:57:31;;;;;;;2.83;1.52;;;;;;;15.08;90.71;102140.25;5230668;28;20056;-74
2023/10/16 12:00:15;;;;;;;3.92;1.33;;;;;;;15.27;97.77;102132.47;5242032;28;20029;-74
2023/10/16 12:02:49;;;;;;;4.13;1.20;;;;;;;15.18;97.35;102133.22;5236597;28;20415;-74
2023/10/16 12:05:22;;;;;;;2.85;1.33;;;;;;;15.05;100.00;102124.69;5240885;28;20035;-74
2023/10/16 12:07:57;;;;;;;3.55;1.23;;;;;;;15.18;92.98;102121.84;5237146;28;20028;-74
2023/10/16 12:10:29;;;;;;;3.85;1.25;;;;;;;15.10;99.46;102119.84;5239772;28;20037;-74
2023/10/16 12:13:03;;;;;;;3.55;1.30;;;;;;;15.13;91.62;102110.84;5233422;28;20028;-73
2023/10/16 12:15:34;;;;;;;2.47;1.00;;;;;;;15.15;97.25;102115.00;5231670;28;20056;-74
2023/10/16 12:18:09;;;;;;;4.07;1.48;;;;;;;15.09;96.79;102116.38;5232056;28;20029;-74
2023/10/16 12:20:41;;;;;;;4.53;1.20;;;;;;;14.99;100.00;102098.78;5236236;28;20029;-74
2023/10/16 12:23:13;;;;;;;3.25;1.15;;;;;;;15.10;100.00;102101.34;5231689;28;20049;-76
2023/10/16 12:25:45;;;;;;;4.30;1.15;;;;;;;15.11;90.64;102107.47;5234509;28;20037;-74
2023/10/16 12:28:17;;;;;;;3.43;1.40;;;;;;;15.12;100.00;102110.00;5236358;28;20025;-74
2023/10/16 12:30:49;;;;;;;4.68;1.10;;;;;;;15.15;93.54;102101.81;5233626;28;20306;-74
2023/10/16 12:33:21;;;;;;;3.50;1.02;;;;;;;15.09;90.66;102107.63;5238272;28;20041;-74
2023/10/16 12:35:57;;;;;;;2.45;1.00;;;;;;;15.08;93.05;102092.75;5242487;28;20460;-74
2023/10/16 12:38:29;;;;;;;3.13;0.75;;;;;;;15.20;84.47;102099.63;5242875;28;20041;-74
2023/10/16 12:41:05;;;;;;;1.92;0.70;;;;;;;15.32;86.16;102092.47;5242367;28;20024;-73
2023/10/16 12:43:37;;;;;;;1.75;1.02;;;;;;;15.06;84.99;102094.66;5244765;28;20050;-73
2023/10/16 12:46:08;;;;;;;3.88;1.30;;;;;;;15.09;91.40;102086.50;5244531;28;20778;-74
2023/10/16 12:48:41;;;;;;;3.15;1.20;;;;;;;15.06;99.58;102086.75;5242183;28;20040;-74
2023/10/16 12:51:12;;;;;;;3.83;1.30;;;;;;;15.15;93.97;102088.59;5245732;28;20028;-75
2023/10/16 12:53:45;;;;;;;5.55;1.80;;;;;;;15.16;100.00;102078.91;5244743;28;20116;-73
2023/10/16 12:56:20;;;;;;;3.03;1.33;;;;;;;15.23;100.00;102080.06;5245181;28;20029;-74
2023/10/16 12:58:52;;;;;;;4.60;1.10;;;;;;;15.26;95.35;102077.97;5238094;28;20028;-74
2023/10/16 13:01:24;;;;;;;4.20;1.30;;;;;;;15.32;94.27;102085.38;5240421;28;20135;-74
2023/10/16 13:03:59;;;;;;;5.55;1.58;;;;;;;15.31;94.86;102086.34;5242925;28;20029;-74
2023/10/16 13:06:31;;;;;;;3.33;1.42;;;;;;;15.24;93.69;102082.56;5243322;28;20028;-74
2023/10/16 13:09:05;;;;;;;3.10;1.13;;;;;;;15.27;97.82;102079.66;5240393;28;20029;-74
2023/10/16 13:11:37;;;;;;;3.58;1.20;;;;;;;15.32;93.44;102084.56;5247406;28;20032;-74
2023/10/16 13:14:11;;;;;;;3.08;1.38;;;;;;;15.19;93.34;102079.47;5245635;28;20029;-73
2023/10/16 13:16:53;;;;;;;3.03;1.27;;;;;;;15.23;88.80;102085.34;5241408;28;20025;-74
2023/10/16 13:19:27;;;;;;;4.10;1.67;;;;;;;15.17;92.46;102080.56;5243338;28;20031;-73
2023/10/16 13:22:07;;;;;;;4.38;1.52;;;;;;;15.15;94.90;102077.22;5240234;28;20033;-74
2023/10/16 13:24:42;;;;;;;4.15;1.20;;;;;;;15.14;99.26;102081.66;5239114;28;20029;-74
2023/10/16 13:27:16;;;;;;;3.90;1.60;;;;;;;15.15;89.37;102072.75;5241766;28;20019;-73
2023/10/16 13:29:48;;;;;;;3.33;1.52;;;;;;;15.08;91.15;102076.91;5239705;28;20469;-74
2023/10/16 13:32:20;;;;;;;3.40;1.20;;;;;;;15.10;98.46;102069.69;5240697;28;20029;-74
2023/10/16 13:34:52;;;;;;;3.38;1.50;;;;;;;15.18;93.85;102072.50;5241454;28;20155;-74
2023/10/16 13:37:24;;;;;;;4.72;1.60;;;;;;;15.17;88.02;102077.94;5240246;28;20049;-74
2023/10/16 13:39:56;;;;;;;4.03;1.52;;;;;;;15.16;92.84;102078.91;5246354;28;20482;-74
2023/10/16 13:42:28;;;;;;;3.45;1.42;;;;;;;15.17;91.46;102077.94;5235597;28;20033;-74
2023/10/16 13:45:00;;;;;;;3.33;1.40;;;;;;;15.14;88.53;102079.03;5241581;28;20041;-74
2023/10/16 13:47:32;;;;;;;3.72;1.48;;;;;;;15.07;97.38;102069.94;5266546;28;20039;-74
2023/10/16 13:50:06;;;;;;;8.00;1.70;;;;;;;15.09;96.71;102078.56;5266932;28;20035;-74
2023/10/16 13:52:38;;;;;;;5.30;1.77;;;;;;;15.10;100.00;102069.69;5263054;28;20056;-74
2023/10/16 13:55:20;;;;;;;3.13;1.38;;;;;;;15.22;96.40;102066.00;5264310;28;20025;-73
2023/10/16 13:57:54;;;;;;;4.17;1.50;;;;;;;15.13;93.84;102063.31;5266898;28;20044;-73
2023/10/16 14:00:28;;;;;;;4.22;1.42;;;;;;;15.15;98.30;102056.94;5269566;28;20390;-74